Time;durP1;ratioP1;P1;durP2;ratioP2;P2;SDS_P1;SDS_P2;PMS_P1;PMS_P2;Temp;Humidity;BMP_temperature;BMP_pressure;BME280_temperature;BME280_humidity;BME280_pressure;Samples;Min_cycle;Max_cycle;Signal;HPM_P1;HPM_P2
2022/07/29 00:00:37;;;;;;;;;;;18.20;70.40;;;;;;5073060;28;20392;-70
2022/07/29 00:03:04;;;;;;;;;;;18.20;70.80;;;;;;5090894;28;19928;-69
2022/07/29 00:05:32;;;;;;;;;;;18.20;71.10;;;;;;5094729;28;19924;-70
2022/07/29 00:07:59;;;;;;;;;;;18.10;70.90;;;;;;5092372;28;20030;-69
2022/07/29 00:10:25;;;;;;;;;;;18.10;71.00;;;;;;5093820;28;19967;-70
2022/07/29 00:12:52;;;;;;;;;;;18.10;71.30;;;;;;5087999;28;19975;-69
2022/07/29 00:15:19;;;;;;;;;;;18.10;71.80;;;;;;5091800;28;19924;-71
2022/07/29 00:17:45;;;;;;;;;;;18.10;71.70;;;;;;5087886;28;19967;-70
2022/07/29 00:20:12;;;;;;;;;;;18.10;72.10;;;;;;5094175;28;20362;-70
2022/07/29 00:22:40;;;;;;;;;;;18.00;72.10;;;;;;5091741;28;20007;-70
2022/07/29 00:25:07;;;;;;;;;;;18.00;72.20;;;;;;5094012;28;19995;-70
2022/07/29 00:27:34;;;;;;;;;;;18.00;72.20;;;;;;5076205;28;19928;-70
2022/07/29 00:30:01;;;;;;;;;;;18.00;72.70;;;;;;5073839;28;19925;-70
2022/07/29 00:32:28;;;;;;;;;;;18.00;73.00;;;;;;5084767;28;20003;-70
2022/07/29 00:37:40;;;;;;;;;;;17.90;73.00;;;;;;5078806;28;20295;-69
2022/07/29 00:40:07;;;;;;;;;;;18.00;73.30;;;;;;5073617;28;20023;-69
2022/07/29 00:42:41;;;;;;;;;;;17.90;73.10;;;;;;5085350;28;20023;-70
2022/07/29 00:45:09;;;;;;;;;;;18.00;73.70;;;;;;5093770;28;19924;-70
2022/07/29 00:47:35;;;;;;;;;;;17.90;74.10;;;;;;5079401;28;19931;-71
2022/07/29 00:50:02;;;;;;;;;;;17.90;74.60;;;;;;5072879;28;21255;-71
2022/07/29 00:52:29;;;;;;;;;;;17.90;74.50;;;;;;5085100;28;19959;-71
2022/07/29 00:54:57;;;;;;;;;;;17.80;74.70;;;;;;5087674;28;20034;-71
2022/07/29 00:57:24;;;;;;;;;;;17.80;74.90;;;;;;5073085;28;19928;-70
2022/07/29 00:59:50;;;;;;;;;;;17.80;74.90;;;;;;5072979;28;19925;-70
2022/07/29 01:02:17;;;;;;;;;;;17.80;74.80;;;;;;5083232;28;20018;-70
2022/07/29 01:04:44;;;;;;;;;;;17.80;74.70;;;;;;5078847;28;20021;-69
2022/07/29 01:07:11;;;;;;;;;;;17.80;75.10;;;;;;5081354;28;20351;-70
2022/07/29 01:09:37;;;;;;;;;;;17.70;75.10;;;;;;5093078;28;19978;-69
2022/07/29 01:12:06;;;;;;;;;;;17.70;75.20;;;;;;5083842;28;19967;-70
2022/07/29 01:14:33;;;;;;;;;;;17.70;75.50;;;;;;5072730;28;20379;-69
2022/07/29 01:17:02;;;;;;;;;;;17.70;75.90;;;;;;5076209;28;20023;-69
2022/07/29 01:19:44;;;;;;;;;;;17.60;76.30;;;;;;5089160;28;19933;-70
2022/07/29 01:22:18;;;;;;;;;;;17.60;76.50;;;;;;5072077;28;19999;-71
2022/07/29 01:24:55;;;;;;;;;;;17.60;76.90;;;;;;5073016;28;20019;-71
2022/07/29 01:27:34;;;;;;;;;;;17.60;77.50;;;;;;5083564;28;20007;-70
2022/07/29 01:30:03;;;;;;;;;;;17.60;77.50;;;;;;5093202;28;19928;-70
2022/07/29 01:32:30;;;;;;;;;;;17.60;78.20;;;;;;5091221;28;19931;-70
2022/07/29 01:34:59;;;;;;;;;;;17.50;78.50;;;;;;5093152;28;20446;-70
2022/07/29 01:37:29;;;;;;;;;;;17.50;79.10;;;;;;5083654;28;19993;-69
2022/07/29 01:39:57;;;;;;;;;;;17.40;80.10;;;;;;5092636;28;19924;-70
2022/07/29 01:42:27;;;;;;;;;;;17.40;80.70;;;;;;5090721;28;19941;-70
2022/07/29 01:44:56;;;;;;;;;;;17.30;81.30;;;;;;5092533;28;19924;-70
2022/07/29 01:47:26;;;;;;;;;;;17.30;81.70;;;;;;5090422;28;20294;-70
2022/07/29 01:49:55;;;;;;;;;;;17.20;82.30;;;;;;5087038;28;20418;-70
2022/07/29 01:52:24;;;;;;;;;;;17.20;83.10;;;;;;5082873;28;20003;-70
2022/07/29 01:54:54;;;;;;;;;;;17.10;84.20;;;;;;5072670;28;19997;-71
2022/07/29 01:57:22;;;;;;;;;;;17.10;84.60;;;;;;5082990;28;19931;-71
2022/07/29 01:59:49;;;;;;;;;;;17.10;85.50;;;;;;5092790;28;19969;-70
2022/07/29 02:02:17;;;;;;;;;;;17.00;85.90;;;;;;5090939;28;19978;-70
2022/07/29 02:04:48;;;;;;;;;;;17.00;86.50;;;;;;5092286;28;19931;-70
2022/07/29 02:07:17;;;;;;;;;;;17.00;87.00;;;;;;5090618;28;19924;-70
2022/07/29 02:09:44;;;;;;;;;;;17.00;87.50;;;;;;5092572;28;19977;-70
2022/07/29 02:12:12;;;;;;;;;;;16.90;87.80;;;;;;5080883;28;19979;-70
2022/07/29 02:14:40;;;;;;;;;;;16.90;88.40;;;;;;5071910;28;20011;-70
2022/07/29 02:17:08;;;;;;;;;;;16.80;88.90;;;;;;5076840;28;20008;-70
2022/07/29 02:19:35;;;;;;;;;;;16.80;89.80;;;;;;5077640;28;19975;-70
2022/07/29 02:22:03;;;;;;;;;;;16.70;90.10;;;;;;5081991;28;19971;-70
2022/07/29 02:24:30;;;;;;;;;;;16.70;90.50;;;;;;5083538;28;19931;-70
2022/07/29 02:26:58;;;;;;;;;;;16.60;90.90;;;;;;5082920;28;19931;-70
2022/07/29 02:29:27;;;;;;;;;;;16.60;91.20;;;;;;5096455;28;19963;-71
2022/07/29 02:31:56;;;;;;;;;;;16.50;91.60;;;;;;5087036;28;19928;-70
2022/07/29 02:34:23;;;;;;;;;;;16.50;92.20;;;;;;5075816;28;19968;-70
2022/07/29 02:36:50;;;;;;;;;;;16.40;92.60;;;;;;5081584;28;19924;-70
2022/07/29 02:39:18;;;;;;;;;;;16.40;93.10;;;;;;5094553;28;19972;-69
2022/07/29 02:41:47;;;;;;;;;;;16.30;93.40;;;;;;5082896;28;19924;-70
2022/07/29 02:44:15;;;;;;;;;;;16.30;93.50;;;;;;5097518;28;20009;-70
2022/07/29 02:46:44;;;;;;;;;;;16.30;93.80;;;;;;5088200;28;19929;-70
2022/07/29 02:49:16;;;;;;;;;;;16.30;94.10;;;;;;5075878;28;19972;-70
2022/07/29 02:51:44;;;;;;;;;;;16.20;94.30;;;;;;5080289;28;19924;-70
2022/07/29 02:54:11;;;;;;;;;;;16.20;94.70;;;;;;5095889;28;20448;-70
2022/07/29 02:56:41;;;;;;;;;;;16.10;94.90;;;;;;5082341;28;20007;-71
2022/07/29 02:59:10;;;;;;;;;;;16.10;95.40;;;;;;5075808;28;19931;-70
2022/07/29 03:01:39;;;;;;;;;;;16.00;95.70;;;;;;5079002;28;19924;-70
2022/07/29 03:04:06;;;;;;;;;;;15.90;96.20;;;;;;5095440;28;19983;-70
2022/07/29 03:06:34;;;;;;;;;;;15.90;96.90;;;;;;5093774;28;19928;-70
2022/07/29 03:09:01;;;;;;;;;;;15.80;97.10;;;;;;5095575;28;19924;-69
2022/07/29 03:11:28;;;;;;;;;;;15.70;97.50;;;;;;5092823;28;19931;-70
2022/07/29 03:13:56;;;;;;;;;;;15.70;97.90;;;;;;5089342;28;19931;-70
2022/07/29 03:16:23;;;;;;;;;;;15.70;98.30;;;;;;5075791;28;19925;-70
2022/07/29 03:18:50;;;;;;;;;;;15.60;99.10;;;;;;5085438;28;20386;-70
2022/07/29 03:21:17;;;;;;;;;;;15.50;99.80;;;;;;5075109;28;19928;-70
2022/07/29 03:23:44;;;;;;;;;;;15.40;99.90;;;;;;5093886;28;20016;-69
2022/07/29 03:26:11;;;;;;;;;;;15.40;99.90;;;;;;5092073;28;19928;-70
2022/07/29 03:28:38;;;;;;;;;;;15.40;99.90;;;;;;5093750;28;20383;-70
2022/07/29 03:31:06;;;;;;;;;;;15.40;99.90;;;;;;5091885;28;19924;-70
2022/07/29 03:33:33;;;;;;;;;;;15.40;99.90;;;;;;5087897;28;19925;-70
2022/07/29 03:36:02;;;;;;;;;;;15.40;99.90;;;;;;5079122;28;19924;-70
2022/07/29 03:38:30;;;;;;;;;;;15.40;99.90;;;;;;5093578;28;20367;-71
2022/07/29 03:40:57;;;;;;;;;;;15.40;99.90;;;;;;5092485;28;19924;-70
2022/07/29 03:43:25;;;;;;;;;;;15.40;99.90;;;;;;5079889;28;20365;-70
2022/07/29 03:45:53;;;;;;;;;;;15.40;99.90;;;;;;5073168;28;20011;-70
2022/07/29 03:48:22;;;;;;;;;;;15.30;99.90;;;;;;5086560;28;20003;-69
2022/07/29 03:50:49;;;;;;;;;;;15.40;99.90;;;;;;5086033;28;19925;-70
2022/07/29 03:53:16;;;;;;;;;;;15.30;99.90;;;;;;5092041;28;19959;-70
2022/07/29 03:55:45;;;;;;;;;;;15.30;99.90;;;;;;5094014;28;19970;-70
2022/07/29 03:58:13;;;;;;;;;;;15.20;99.90;;;;;;5091712;28;19975;-70
2022/07/29 04:00:41;;;;;;;;;;;15.20;99.90;;;;;;5079743;28;19971;-70
2022/07/29 04:03:08;;;;;;;;;;;15.20;99.90;;;;;;5073256;28;19967;-70
2022/07/29 04:05:36;;;;;;;;;;;15.20;99.90;;;;;;5073030;28;19971;-70
2022/07/29 04:08:02;;;;;;;;;;;15.20;99.90;;;;;;5089611;28;19928;-70
2022/07/29 04:10:29;;;;;;;;;;;15.20;99.90;;;;;;5090634;28;20439;-70
2022/07/29 04:12:56;;;;;;;;;;;15.30;99.90;;;;;;5024590;28;1790608;-70
2022/07/29 04:15:22;;;;;;;;;;;15.30;99.90;;;;;;5091257;28;20019;-70
2022/07/29 04:17:49;;;;;;;;;;;15.30;99.90;;;;;;5088313;28;19924;-70
2022/07/29 04:20:16;;;;;;;;;;;15.30;99.90;;;;;;5094171;28;19928;-70
2022/07/29 04:22:44;;;;;;;;;;;15.20;99.90;;;;;;5091976;28;19979;-71
2022/07/29 04:25:10;;;;;;;;;;;15.10;99.90;;;;;;5086679;28;20015;-70
2022/07/29 04:27:59;;;;;;;;;;;15.10;99.90;;;;;;5086067;28;20027;-70
2022/07/29 04:30:24;;;;;;;;;;;15.10;99.90;;;;;;5093495;28;19924;-70
2022/07/29 04:32:50;;;;;;;;;;;15.10;99.90;;;;;;5091402;28;19928;-70
2022/07/29 04:35:17;;;;;;;;;;;15.10;99.90;;;;;;5093995;28;20387;-70
2022/07/29 04:37:45;;;;;;;;;;;15.10;99.90;;;;;;5092131;28;19966;-70
2022/07/29 04:40:12;;;;;;;;;;;15.20;99.90;;;;;;5084922;28;20387;-70
2022/07/29 04:42:39;;;;;;;;;;;15.20;99.90;;;;;;5085823;28;19931;-70
2022/07/29 04:45:06;;;;;;;;;;;15.20;99.90;;;;;;5092450;28;19931;-71
2022/07/29 04:47:33;;;;;;;;;;;15.20;99.90;;;;;;5091138;28;19959;-70
2022/07/29 04:50:00;;;;;;;;;;;15.20;99.90;;;;;;5093505;28;19924;-71
2022/07/29 04:52:26;;;;;;;;;;;15.10;99.90;;;;;;5091524;28;19932;-70
2022/07/29 04:54:54;;;;;;;;;;;15.20;99.90;;;;;;5093198;28;19986;-70
2022/07/29 04:57:21;;;;;;;;;;;15.20;99.90;;;;;;5090864;28;19924;-70
2022/07/29 04:59:48;;;;;;;;;;;15.20;99.90;;;;;;5093154;28;20411;-71
2022/07/29 05:02:15;;;;;;;;;;;15.20;99.90;;;;;;5090987;28;19924;-70
2022/07/29 05:04:41;;;;;;;;;;;15.20;99.90;;;;;;5078311;28;19975;-70
2022/07/29 05:07:08;;;;;;;;;;;15.30;99.90;;;;;;5081275;28;19924;-71
2022/07/29 05:09:35;;;;;;;;;;;15.30;99.90;;;;;;5078581;28;19931;-71
2022/07/29 05:12:03;;;;;;;;;;;15.40;99.90;;;;;;5080255;28;20430;-71
2022/07/29 05:14:30;;;;;;;;;;;15.50;99.90;;;;;;5092966;28;19966;-71
2022/07/29 05:16:57;;;;;;;;;;;15.60;99.90;;;;;;5077303;28;20014;-70
2022/07/29 05:19:24;;;;;;;;;;;15.70;99.90;;;;;;5073713;28;22458;-70
2022/07/29 05:21:50;;;;;;;;;;;15.70;99.90;;;;;;5075078;28;19924;-70
2022/07/29 05:24:17;;;;;;;;;;;15.80;99.90;;;;;;5089403;28;19924;-71
2022/07/29 05:26:44;;;;;;;;;;;15.90;99.90;;;;;;5090637;28;19986;-70
2022/07/29 05:29:12;;;;;;;;;;;15.90;99.90;;;;;;5092816;28;19963;-70
2022/07/29 05:31:38;;;;;;;;;;;16.00;99.90;;;;;;5085900;28;19938;-71
2022/07/29 05:34:05;;;;;;;;;;;16.00;99.90;;;;;;5073149;28;20015;-70
2022/07/29 05:36:32;;;;;;;;;;;16.10;99.90;;;;;;5075532;28;19959;-71
2022/07/29 05:38:59;;;;;;;;;;;16.20;99.90;;;;;;5087779;28;20029;-70
2022/07/29 05:41:25;;;;;;;;;;;16.40;99.90;;;;;;5074430;28;19982;-70
2022/07/29 05:43:52;;;;;;;;;;;16.60;99.90;;;;;;5091996;28;19930;-70
2022/07/29 05:46:20;;;;;;;;;;;16.90;99.90;;;;;;5090247;28;19971;-70
2022/07/29 05:48:47;;;;;;;;;;;17.20;99.90;;;;;;5092342;28;20370;-70
2022/07/29 05:51:13;;;;;;;;;;;17.30;99.90;;;;;;5089474;28;19986;-70
2022/07/29 05:53:40;;;;;;;;;;;17.40;99.90;;;;;;5077946;28;20012;-70
2022/07/29 05:56:07;;;;;;;;;;;17.60;99.90;;;;;;5090404;28;19982;-71
2022/07/29 05:58:34;;;;;;;;;;;17.60;99.60;;;;;;5092142;28;19924;-70
2022/07/29 06:01:00;;;;;;;;;;;17.60;99.50;;;;;;5091210;28;19924;-72
2022/07/29 06:03:29;;;;;;;;;;;17.20;99.90;;;;;;5092038;28;20379;-71
2022/07/29 06:05:55;;;;;;;;;;;16.90;99.90;;;;;;5086625;28;19925;-70
2022/07/29 06:08:23;;;;;;;;;;;16.70;99.90;;;;;;5083092;28;19963;-71
2022/07/29 06:10:49;;;;;;;;;;;16.70;99.90;;;;;;5072225;28;19925;-71
2022/07/29 06:13:16;;;;;;;;;;;17.50;99.90;;;;;;5089636;28;20019;-70
2022/07/29 06:15:43;;;;;;;;;;;19.70;97.40;;;;;;5085011;28;19931;-71
2022/07/29 06:18:10;;;;;;;;;;;21.40;92.50;;;;;;5088775;28;20409;-71
2022/07/29 06:20:38;;;;;;;;;;;21.50;90.00;;;;;;5092033;28;19955;-72
2022/07/29 06:23:05;;;;;;;;;;;21.10;89.10;;;;;;5086105;28;19930;-70
2022/07/29 06:25:34;;;;;;;;;;;20.20;90.90;;;;;;5072042;28;19925;-70
2022/07/29 06:28:01;;;;;;;;;;;20.00;91.10;;;;;;5088308;28;19925;-70
2022/07/29 06:30:28;;;;;;;;;;;19.90;91.90;;;;;;5093801;28;20407;-70
2022/07/29 06:32:55;;;;;;;;;;;19.80;91.80;;;;;;5076170;28;19924;-70
2022/07/29 06:35:22;;;;;;;;;;;19.40;92.50;;;;;;5072201;28;19970;-70
2022/07/29 06:37:50;;;;;;;;;;;19.40;92.60;;;;;;5071682;28;19931;-70
2022/07/29 06:43:00;;;;;;;;;;;19.40;93.40;;;;;;5067823;28;19939;-70
2022/07/29 06:45:27;;;;;;;;;;;19.40;93.30;;;;;;5071563;28;19925;-70
2022/07/29 06:47:54;;;;;;;;;;;19.20;93.60;;;;;;5086323;28;20027;-70
2022/07/29 06:50:21;;;;;;;;;;;19.10;94.10;;;;;;5092415;28;19924;-70
2022/07/29 06:52:48;;;;;;;;;;;19.10;94.60;;;;;;5090027;28;19969;-70
2022/07/29 06:55:16;;;;;;;;;;;19.30;94.10;;;;;;5090489;28;20370;-70
2022/07/29 06:57:42;;;;;;;;;;;19.40;94.30;;;;;;5071942;28;19970;-70
2022/07/29 07:00:10;;;;;;;;;;;21.60;91.80;;;;;;5071880;28;19947;-71
2022/07/29 07:02:37;;;;;;;;;;;24.90;80.50;;;;;;5071898;28;19924;-70
2022/07/29 07:05:05;;;;;;;;;;;26.70;60.70;;;;;;5070830;28;19975;-70
2022/07/29 07:07:32;;;;;;;;;;;27.70;53.70;;;;;;5083986;28;20018;-70
2022/07/29 07:09:58;;;;;;;;;;;28.40;45.30;;;;;;5095286;28;20010;-71
2022/07/29 07:12:26;;;;;;;;;;;28.80;41.60;;;;;;5093157;28;20007;-70
2022/07/29 07:14:53;;;;;;;;;;;26.80;42.90;;;;;;5095656;28;20337;-70
2022/07/29 07:17:20;;;;;;;;;;;25.60;45.50;;;;;;5083569;28;20110;-72
2022/07/29 07:19:46;;;;;;;;;;;24.20;49.60;;;;;;5075197;28;20023;-70
2022/07/29 07:22:13;;;;;;;;;;;23.50;72.20;;;;;;5076847;28;20018;-71
2022/07/29 07:24:40;;;;;;;;;;;23.60;73.90;;;;;;5074929;28;19976;-70
2022/07/29 07:27:06;;;;;;;;;;;25.80;67.70;;;;;;5082931;28;20286;-71
2022/07/29 07:29:35;;;;;;;;;;;28.00;60.10;;;;;;5090803;28;19960;-72
2022/07/29 07:32:01;;;;;;;;;;;29.50;53.50;;;;;;5081821;28;19932;-71
2022/07/29 07:34:29;;;;;;;;;;;30.30;49.50;;;;;;5094796;28;19984;-70
2022/07/29 07:36:56;;;;;;;;;;;30.40;33.40;;;;;;5092781;28;19963;-71
2022/07/29 07:39:23;;;;;;;;;;;31.00;30.00;;;;;;5094418;28;19979;-71
2022/07/29 07:41:49;;;;;;;;;;;30.60;29.20;;;;;;5092014;28;20023;-71
2022/07/29 07:44:16;;;;;;;;;;;28.70;30.80;;;;;;5093216;28;19955;-70
2022/07/29 07:46:45;;;;;;;;;;;28.60;33.00;;;;;;5092766;28;20399;-71
2022/07/29 07:49:11;;;;;;;;;;;29.00;33.00;;;;;;5082992;28;19924;-71
2022/07/29 07:51:38;;;;;;;;;;;30.50;29.30;;;;;;5089238;28;20438;-72
2022/07/29 07:54:05;;;;;;;;;;;30.80;27.70;;;;;;5094587;28;20329;-71
2022/07/29 07:56:32;;;;;;;;;;;29.70;29.20;;;;;;5092184;28;20446;-71
2022/07/29 07:58:58;;;;;;;;;;;29.90;28.50;;;;;;5081678;28;20288;-71
2022/07/29 08:01:25;;;;;;;;;;;29.00;29.20;;;;;;5076115;28;20055;-71
2022/07/29 08:03:53;;;;;;;;;;;29.80;28.70;;;;;;5074653;28;19924;-72
2022/07/29 08:06:20;;;;;;;;;;;29.30;28.80;;;;;;5075879;28;20019;-72
2022/07/29 08:08:46;;;;;;;;;;;27.10;32.50;;;;;;5094355;28;19924;-72
2022/07/29 08:11:13;;;;;;;;;;;28.90;31.20;;;;;;5091687;28;20027;-72
2022/07/29 08:13:40;;;;;;;;;;;28.90;29.90;;;;;;5090490;28;20403;-72
2022/07/29 08:16:16;;;;;;;;;;;30.40;28.70;;;;;;5084747;28;20410;-71
2022/07/29 08:18:44;;;;;;;;;;;28.60;30.20;;;;;;5093032;28;19966;-72
2022/07/29 08:21:12;;;;;;;;;;;27.80;33.40;;;;;;5091817;28;19979;-71
2022/07/29 08:23:39;;;;;;;;;;;29.70;29.90;;;;;;5072597;28;20015;-71
2022/07/29 08:26:10;;;;;;;;;;;30.30;29.30;;;;;;5072553;28;20299;-70
2022/07/29 08:28:37;;;;;;;;;;;29.00;30.00;;;;;;5073577;28;20011;-71
2022/07/29 08:31:03;;;;;;;;;;;29.50;28.90;;;;;;5073276;28;20328;-72
2022/07/29 08:33:30;;;;;;;;;;;28.70;31.30;;;;;;5072891;28;19974;-72
2022/07/29 08:36:00;;;;;;;;;;;30.00;29.50;;;;;;5073465;28;19924;-73
2022/07/29 08:38:28;;;;;;;;;;;30.30;28.90;;;;;;5092863;28;19924;-70
2022/07/29 08:40:55;;;;;;;;;;;30.80;27.10;;;;;;5073050;28;19924;-71
2022/07/29 08:43:21;;;;;;;;;;;30.60;26.90;;;;;;5092405;28;19924;-71
2022/07/29 08:45:49;;;;;;;;;;;30.50;26.90;;;;;;5093862;28;20400;-72
2022/07/29 08:48:17;;;;;;;;;;;30.00;27.10;;;;;;5073123;28;19931;-72
2022/07/29 08:50:44;;;;;;;;;;;29.80;27.10;;;;;;5072934;28;20003;-72
2022/07/29 08:53:12;;;;;;;;;;;30.20;27.30;;;;;;5090645;28;19935;-72
2022/07/29 08:55:41;;;;;;;;;;;31.10;26.20;;;;;;5094107;28;20016;-72
2022/07/29 08:58:08;;;;;;;;;;;31.30;24.90;;;;;;5091064;28;19924;-72
2022/07/29 09:00:36;;;;;;;;;;;30.10;24.90;;;;;;5093151;28;20069;-69
2022/07/29 09:03:05;;;;;;;;;;;30.30;25.30;;;;;;5074855;28;19924;-69
2022/07/29 09:05:32;;;;;;;;;;;30.50;25.10;;;;;;5092792;28;19928;-70
2022/07/29 09:07:59;;;;;;;;;;;29.50;24.60;;;;;;5091397;28;20330;-71
2022/07/29 09:10:26;;;;;;;;;;;28.00;26.90;;;;;;5093494;28;20031;-71
2022/07/29 09:12:54;;;;;;;;;;;29.30;26.30;;;;;;5091058;28;20004;-71
2022/07/29 09:15:21;;;;;;;;;;;29.30;25.70;;;;;;5092962;28;19924;-71
2022/07/29 09:17:49;;;;;;;;;;;28.90;25.70;;;;;;5087548;28;19963;-71
2022/07/29 09:20:16;;;;;;;;;;;27.80;27.30;;;;;;5082598;28;20410;-71
2022/07/29 09:22:43;;;;;;;;;;;28.80;27.30;;;;;;5086141;28;20023;-71
2022/07/29 09:25:12;;;;;;;;;;;27.30;28.20;;;;;;5092852;28;20030;-71
2022/07/29 09:27:39;;;;;;;;;;;27.10;29.70;;;;;;5090631;28;20018;-71
2022/07/29 09:30:10;;;;;;;;;;;27.40;28.10;;;;;;5092299;28;19924;-71
2022/07/29 09:32:51;;;;;;;;;;;28.80;25.80;;;;;;5090219;28;19939;-69
2022/07/29 09:35:19;;;;;;;;;;;28.10;25.90;;;;;;5070841;28;20410;-71
2022/07/29 09:37:45;;;;;;;;;;;28.50;25.90;;;;;;5085566;28;19974;-71
2022/07/29 09:40:13;;;;;;;;;;;28.50;25.20;;;;;;5092250;28;20010;-70
2022/07/29 09:42:40;;;;;;;;;;;28.20;25.20;;;;;;5090363;28;19947;-70
2022/07/29 09:45:08;;;;;;;;;;;28.60;23.50;;;;;;5092602;28;20412;-71
2022/07/29 09:47:44;;;;;;;;;;;28.70;23.30;;;;;;5077356;28;19924;-70
2022/07/29 09:50:11;;;;;;;;;;;27.40;24.50;;;;;;5075300;28;20317;-71
2022/07/29 09:52:46;;;;;;;;;;;27.10;25.50;;;;;;5090183;28;20023;-71
2022/07/29 09:55:13;;;;;;;;;;;26.30;27.60;;;;;;5092793;28;19998;-71
2022/07/29 09:57:39;;;;;;;;;;;27.80;26.90;;;;;;5090300;28;20467;-70
2022/07/29 10:00:09;;;;;;;;;;;28.40;25.50;;;;;;5092542;28;19975;-70
2022/07/29 10:02:37;;;;;;;;;;;28.20;25.00;;;;;;5077756;28;19968;-71
2022/07/29 10:05:05;;;;;;;;;;;29.10;23.70;;;;;;5071436;28;19925;-71
2022/07/29 10:07:44;;;;;;;;;;;29.20;23.70;;;;;;5071531;28;20008;-72
2022/07/29 10:10:11;;;;;;;;;;;27.60;24.30;;;;;;5072377;28;19925;-71
2022/07/29 10:12:48;;;;;;;;;;;27.50;25.30;;;;;;5084324;28;20377;-72
2022/07/29 10:15:17;;;;;;;;;;;27.00;24.80;;;;;;5089743;28;19924;-71
2022/07/29 10:17:44;;;;;;;;;;;25.60;26.70;;;;;;5078030;28;19924;-71
2022/07/29 10:20:11;;;;;;;;;;;25.00;29.40;;;;;;5073998;28;20409;-71
2022/07/29 10:22:38;;;;;;;;;;;25.60;27.90;;;;;;5084943;28;19982;-72
2022/07/29 10:25:05;;;;;;;;;;;25.60;28.10;;;;;;5074030;28;19970;-71
2022/07/29 10:27:31;;;;;;;;;;;25.10;28.70;;;;;;5072132;28;20027;-72
2022/07/29 10:29:58;;;;;;;;;;;25.10;27.50;;;;;;5071924;28;19964;-72
2022/07/29 10:32:33;;;;;;;;;;;25.30;27.00;;;;;;5071830;28;19924;-69
2022/07/29 10:35:18;;;;;;;;;;;25.10;29.10;;;;;;5072175;28;19959;-72
2022/07/29 10:37:57;;;;;;;;;;;25.10;29.50;;;;;;5085076;28;19972;-71
2022/07/29 10:43:17;;;;;;;;;;;25.20;29.10;;;;;;5082221;28;19931;-71
2022/07/29 10:45:44;;;;;;;;;;;25.10;28.90;;;;;;5075717;28;20326;-70
2022/07/29 10:48:12;;;;;;;;;;;24.90;30.00;;;;;;5092947;28;19924;-71
2022/07/29 10:50:56;;;;;;;;;;;24.70;29.20;;;;;;5096416;28;20019;-71
2022/07/29 10:53:23;;;;;;;;;;;24.90;29.10;;;;;;5076437;28;20299;-70
2022/07/29 10:55:50;;;;;;;;;;;24.60;30.20;;;;;;5081146;28;19924;-70
2022/07/29 10:58:18;;;;;;;;;;;24.60;30.10;;;;;;5093637;28;19935;-71
2022/07/29 11:00:45;;;;;;;;;;;25.40;30.00;;;;;;5096218;28;19924;-72
2022/07/29 11:06:06;;;;;;;;;;;26.20;26.30;;;;;;5108129;27;19912;-71
2022/07/29 11:08:33;;;;;;;;;;;25.30;26.40;;;;;;5109441;28;19963;-71
2022/07/29 11:11:21;;;;;;;;;;;25.30;27.60;;;;;;5104266;28;19947;-71
2022/07/29 11:13:51;;;;;;;;;;;25.70;27.10;;;;;;5088873;28;19960;-71
2022/07/29 11:16:21;;;;;;;;;;;25.90;23.90;;;;;;5091626;28;19924;-72
2022/07/29 11:19:06;;;;;;;;;;;25.80;25.00;;;;;;5109510;28;20433;-72
2022/07/29 11:21:38;;;;;;;;;;;25.30;25.90;;;;;;5106459;28;19924;-72
2022/07/29 11:24:12;;;;;;;;;;;25.50;27.50;;;;;;5109947;28;20069;-72
2022/07/29 11:26:39;;;;;;;;;;;25.90;27.30;;;;;;5107786;28;19946;-72
2022/07/29 11:29:15;;;;;;;;;;;26.10;27.00;;;;;;5109656;28;20012;-71
2022/07/29 11:31:43;;;;;;;;;;;26.00;26.20;;;;;;5107558;28;19970;-71
2022/07/29 11:34:23;;;;;;;;;;;26.00;26.10;;;;;;5098323;28;19925;-71
2022/07/29 11:37:08;;;;;;;;;;;26.10;25.40;;;;;;5095558;28;19970;-71
2022/07/29 11:39:37;;;;;;;;;;;25.60;25.80;;;;;;5098567;28;20307;-72
2022/07/29 11:42:18;;;;;;;;;;;25.80;25.30;;;;;;5088347;28;19924;-73
2022/07/29 11:44:54;;;;;;;;;;;26.00;25.20;;;;;;5087191;28;20032;-72
2022/07/29 11:47:22;;;;;;;;;;;25.50;24.40;;;;;;5099015;28;19975;-71
2022/07/29 11:49:49;;;;;;;;;;;25.40;27.10;;;;;;5109587;28;19924;-72
2022/07/29 11:52:16;;;;;;;;;;;25.80;26.00;;;;;;5106968;28;19928;-71
2022/07/29 11:54:45;;;;;;;;;;;25.80;24.90;;;;;;5108982;28;19975;-72
2022/07/29 11:57:11;;;;;;;;;;;25.50;25.90;;;;;;5106960;28;20409;-72
2022/07/29 11:59:41;;;;;;;;;;;25.80;25.70;;;;;;5103322;28;20121;-72
2022/07/29 12:02:08;;;;;;;;;;;25.70;27.10;;;;;;5096853;28;19928;-72
2022/07/29 12:04:35;;;;;;;;;;;25.40;27.60;;;;;;5116255;28;20398;-71
2022/07/29 12:07:02;;;;;;;;;;;25.40;27.60;;;;;;5115360;28;19923;-72
2022/07/29 12:09:28;;;;;;;;;;;25.70;27.10;;;;;;5129068;28;19974;-71
2022/07/29 12:11:58;;;;;;;;;;;25.80;25.70;;;;;;5127391;28;19930;-71
2022/07/29 12:14:26;;;;;;;;;;;25.60;26.00;;;;;;5128084;28;19963;-72
2022/07/29 12:16:53;;;;;;;;;;;26.20;25.90;;;;;;5104279;28;19928;-71
2022/07/29 12:19:20;;;;;;;;;;;26.60;24.80;;;;;;5115425;28;19970;-71
2022/07/29 12:21:47;;;;;;;;;;;26.70;24.50;;;;;;5113186;28;19930;-72
2022/07/29 12:24:14;;;;;;;;;;;27.10;23.30;;;;;;5112890;28;19971;-71
2022/07/29 12:26:50;;;;;;;;;;;27.20;22.60;;;;;;5108200;28;20325;-72
2022/07/29 12:29:18;;;;;;;;;;;27.30;22.90;;;;;;5115343;28;19966;-72
2022/07/29 12:31:46;;;;;;;;;;;27.40;23.90;;;;;;5106852;28;19939;-71
2022/07/29 12:34:13;;;;;;;;;;;27.20;23.00;;;;;;5094277;28;19930;-71
2022/07/29 12:36:40;;;;;;;;;;;27.40;22.60;;;;;;5095294;28;20016;-72
2022/07/29 12:39:06;;;;;;;;;;;27.50;22.50;;;;;;5094397;28;19924;-71
2022/07/29 12:41:33;;;;;;;;;;;27.50;22.30;;;;;;5098300;28;20010;-71
2022/07/29 12:44:00;;;;;;;;;;;27.40;21.90;;;;;;5115098;28;20014;-71
2022/07/29 12:46:28;;;;;;;;;;;27.30;22.40;;;;;;5112589;28;19924;-72
2022/07/29 12:48:56;;;;;;;;;;;27.40;22.40;;;;;;5114865;28;20022;-72
2022/07/29 12:51:29;;;;;;;;;;;27.00;22.60;;;;;;5110788;28;19924;-70
2022/07/29 12:54:03;;;;;;;;;;;26.90;23.10;;;;;;5094691;28;20504;-71
2022/07/29 12:56:30;;;;;;;;;;;26.90;23.30;;;;;;5097936;28;20011;-72
2022/07/29 12:58:57;;;;;;;;;;;26.10;23.60;;;;;;5113010;28;19930;-72
2022/07/29 13:01:24;;;;;;;;;;;26.00;24.50;;;;;;5093905;28;19986;-71
2022/07/29 13:03:54;;;;;;;;;;;25.70;24.80;;;;;;5093407;28;19971;-71
2022/07/29 13:06:35;;;;;;;;;;;25.60;25.20;;;;;;5094679;28;19924;-71
2022/07/29 13:09:03;;;;;;;;;;;25.20;25.20;;;;;;5093936;28;19946;-71
2022/07/29 13:11:30;;;;;;;;;;;25.10;25.20;;;;;;5093585;28;19967;-70
2022/07/29 13:13:57;;;;;;;;;;;25.50;25.10;;;;;;5093888;28;19967;-71
2022/07/29 13:16:24;;;;;;;;;;;25.70;24.50;;;;;;5103284;28;20401;-71
2022/07/29 13:19:03;;;;;;;;;;;25.80;24.60;;;;;;5114474;28;20396;-72
2022/07/29 13:21:31;;;;;;;;;;;25.90;25.00;;;;;;5093413;28;20458;-71
2022/07/29 13:23:58;;;;;;;;;;;26.00;24.40;;;;;;5093036;28;19924;-72
2022/07/29 13:26:24;;;;;;;;;;;26.20;24.10;;;;;;5093943;28;20023;-71
2022/07/29 13:28:51;;;;;;;;;;;26.50;23.50;;;;;;5092235;28;19982;-72
2022/07/29 13:31:18;;;;;;;;;;;26.70;23.20;;;;;;5094395;28;20034;-71
2022/07/29 13:33:45;;;;;;;;;;;27.10;23.50;;;;;;5093732;28;19924;-71
2022/07/29 13:36:11;;;;;;;;;;;26.90;23.10;;;;;;5093316;28;19969;-71
2022/07/29 13:38:39;;;;;;;;;;;26.50;24.20;;;;;;5092463;28;19930;-71
2022/07/29 13:41:06;;;;;;;;;;;25.50;24.70;;;;;;5092896;28;19963;-72
2022/07/29 13:43:33;;;;;;;;;;;25.30;25.50;;;;;;5113525;28;20383;-72
2022/07/29 13:45:59;;;;;;;;;;;25.70;24.70;;;;;;5112577;28;20014;-71
2022/07/29 13:48:26;;;;;;;;;;;25.70;25.30;;;;;;5093138;28;19971;-72
2022/07/29 13:50:53;;;;;;;;;;;25.50;24.50;;;;;;5093286;28;19963;-72
2022/07/29 13:53:19;;;;;;;;;;;25.70;24.50;;;;;;5112467;28;20028;-72
2022/07/29 13:55:47;;;;;;;;;;;26.40;24.10;;;;;;5113409;28;20019;-71
2022/07/29 13:58:14;;;;;;;;;;;27.20;23.30;;;;;;5092153;28;20023;-69
2022/07/29 14:00:41;;;;;;;;;;;27.50;22.20;;;;;;5092411;28;19945;-70
2022/07/29 14:03:08;;;;;;;;;;;28.00;21.50;;;;;;5109566;28;20381;-69
2022/07/29 14:05:34;;;;;;;;;;;27.80;20.90;;;;;;5113096;28;19976;-71
2022/07/29 14:08:01;;;;;;;;;;;27.40;21.20;;;;;;5113341;28;19963;-71
2022/07/29 14:10:28;;;;;;;;;;;26.90;21.60;;;;;;5115354;28;20022;-71
2022/07/29 14:12:56;;;;;;;;;;;26.70;22.10;;;;;;5111554;28;19924;-71
2022/07/29 14:15:23;;;;;;;;;;;26.90;22.50;;;;;;5113364;28;20017;-71
2022/07/29 14:17:49;;;;;;;;;;;27.20;22.40;;;;;;5110735;28;20370;-71
2022/07/29 14:20:16;;;;;;;;;;;27.10;22.30;;;;;;5110758;28;20678;-71
2022/07/29 14:22:43;;;;;;;;;;;26.70;23.10;;;;;;5105684;28;19963;-72
2022/07/29 14:25:10;;;;;;;;;;;26.80;22.70;;;;;;5113150;28;19967;-71
2022/07/29 14:27:36;;;;;;;;;;;27.20;22.50;;;;;;5111225;28;20421;-71
2022/07/29 14:30:05;;;;;;;;;;;27.60;22.40;;;;;;5102581;28;19955;-71
2022/07/29 14:32:31;;;;;;;;;;;26.90;22.10;;;;;;5103746;28;19975;-71